sensor_id;sensor_type;location;lat;lon;timestamp;pressure;altitude;pressure_sealevel;temperature;humidity
64115;BME280;62188;35.640;139.748;2023-04-24T00:02:13;102317.44;;;18.31;13.94
64115;BME280;62188;35.640;139.748;2023-04-24T00:04:39;102328.85;;;18.18;14.27
64115;BME280;62188;35.640;139.748;2023-04-24T00:07:04;102341.97;;;18.06;14.02
64115;BME280;62188;35.640;139.748;2023-04-24T00:09:30;102345.44;;;18.29;14.05
64115;BME280;62188;35.640;139.748;2023-04-24T00:11:55;102333.86;;;18.06;14.10
64115;BME280;62188;35.640;139.748;2023-04-24T00:14:21;102331.52;;;18.08;13.67
64115;BME280;62188;35.640;139.748;2023-04-24T00:16:47;102324.42;;;17.43;13.62
64115;BME280;62188;35.640;139.748;2023-04-24T00:19:12;102329.42;;;17.54;13.70
64115;BME280;62188;35.640;139.748;2023-04-24T00:21:38;102330.45;;;17.38;13.61
64115;BME280;62188;35.640;139.748;2023-04-24T00:24:04;102330.52;;;17.76;13.81
64115;BME280;62188;35.640;139.748;2023-04-24T00:26:29;102329.74;;;17.71;14.21
64115;BME280;62188;35.640;139.748;2023-04-24T00:28:54;102334.22;;;17.97;15.97
64115;BME280;62188;35.640;139.748;2023-04-24T00:31:20;102335.23;;;18.23;16.35
64115;BME280;62188;35.640;139.748;2023-04-24T00:33:46;102329.18;;;17.92;15.45
64115;BME280;62188;35.640;139.748;2023-04-24T00:36:11;102325.63;;;17.83;16.26
64115;BME280;62188;35.640;139.748;2023-04-24T00:38:37;102317.50;;;18.21;15.71
64115;BME280;62188;35.640;139.748;2023-04-24T00:41:03;102314.25;;;18.18;17.09
64115;BME280;62188;35.640;139.748;2023-04-24T00:43:28;102311.62;;;18.37;14.88
64115;BME280;62188;35.640;139.748;2023-04-24T00:45:54;102316.23;;;18.53;15.70
64115;BME280;62188;35.640;139.748;2023-04-24T00:48:20;102321.41;;;18.66;14.57
64115;BME280;62188;35.640;139.748;2023-04-24T00:50:46;102318.59;;;18.78;14.16
64115;BME280;62188;35.640;139.748;2023-04-24T00:53:11;102311.96;;;18.59;15.00
64115;BME280;62188;35.640;139.748;2023-04-24T00:55:36;102314.26;;;18.19;14.80
64115;BME280;62188;35.640;139.748;2023-04-24T00:58:02;102308.20;;;18.46;14.22
64115;BME280;62188;35.640;139.748;2023-04-24T01:00:28;102311.19;;;18.43;14.86
64115;BME280;62188;35.640;139.748;2023-04-24T01:02:53;102310.44;;;18.35;14.14
64115;BME280;62188;35.640;139.748;2023-04-24T01:05:19;102305.92;;;18.39;14.00
64115;BME280;62188;35.640;139.748;2023-04-24T01:07:46;102308.81;;;18.57;14.20
64115;BME280;62188;35.640;139.748;2023-04-24T01:10:11;102312.47;;;18.49;13.85
64115;BME280;62188;35.640;139.748;2023-04-24T01:12:35;102307.85;;;18.30;13.72
64115;BME280;62188;35.640;139.748;2023-04-24T01:15:01;102303.08;;;18.72;13.82
64115;BME280;62188;35.640;139.748;2023-04-24T01:17:27;102299.51;;;18.69;13.39
64115;BME280;62188;35.640;139.748;2023-04-24T01:19:52;102299.90;;;18.84;14.46
64115;BME280;62188;35.640;139.748;2023-04-24T01:22:18;102296.22;;;19.15;13.75
64115;BME280;62188;35.640;139.748;2023-04-24T01:24:44;102297.54;;;19.31;13.63
64115;BME280;62188;35.640;139.748;2023-04-24T01:27:10;102296.89;;;18.88;14.33
64115;BME280;62188;35.640;139.748;2023-04-24T01:29:36;102291.37;;;19.22;14.12
64115;BME280;62188;35.640;139.748;2023-04-24T01:32:01;102286.21;;;19.40;14.78
64115;BME280;62188;35.640;139.748;2023-04-24T01:34:26;102279.59;;;19.41;14.66
64115;BME280;62188;35.640;139.748;2023-04-24T01:36:51;102278.60;;;19.42;14.44
64115;BME280;62188;35.640;139.748;2023-04-24T01:39:17;102282.73;;;19.33;13.95
64115;BME280;62188;35.640;139.748;2023-04-24T01:41:43;102284.19;;;19.46;14.13
64115;BME280;62188;35.640;139.748;2023-04-24T01:44:08;102287.39;;;19.86;14.20
64115;BME280;62188;35.640;139.748;2023-04-24T01:46:34;102282.07;;;19.53;14.21
64115;BME280;62188;35.640;139.748;2023-04-24T01:49:01;102278.11;;;19.61;14.17
64115;BME280;62188;35.640;139.748;2023-04-24T01:51:24;102276.74;;;19.54;13.84
64115;BME280;62188;35.640;139.748;2023-04-24T01:53:50;102279.11;;;19.65;14.30
64115;BME280;62188;35.640;139.748;2023-04-24T01:56:16;102281.69;;;19.65;14.25
64115;BME280;62188;35.640;139.748;2023-04-24T01:58:42;102280.93;;;19.67;13.97
64115;BME280;62188;35.640;139.748;2023-04-24T02:01:08;102275.25;;;19.89;14.20
64115;BME280;62188;35.640;139.748;2023-04-24T02:03:33;102265.96;;;19.66;13.62
64115;BME280;62188;35.640;139.748;2023-04-24T02:05:58;102259.87;;;19.86;13.68
64115;BME280;62188;35.640;139.748;2023-04-24T02:08:24;102256.36;;;19.81;13.49
64115;BME280;62188;35.640;139.748;2023-04-24T02:10:49;102252.86;;;19.98;13.70
64115;BME280;62188;35.640;139.748;2023-04-24T02:13:14;102243.80;;;20.18;13.71
64115;BME280;62188;35.640;139.748;2023-04-24T02:15:40;102247.74;;;20.43;13.09
64115;BME280;62188;35.640;139.748;2023-04-24T02:18:05;102242.64;;;20.31;13.09
64115;BME280;62188;35.640;139.748;2023-04-24T02:20:31;102242.12;;;20.50;13.11
64115;BME280;62188;35.640;139.748;2023-04-24T02:22:57;102241.72;;;20.44;12.93
64115;BME280;62188;35.640;139.748;2023-04-24T02:25:22;102239.45;;;20.41;13.05
64115;BME280;62188;35.640;139.748;2023-04-24T02:27:47;102235.09;;;20.67;12.74
64115;BME280;62188;35.640;139.748;2023-04-24T02:30:14;102231.53;;;20.64;12.61
64115;BME280;62188;35.640;139.748;2023-04-24T02:32:38;102228.86;;;20.63;12.54
64115;BME280;62188;35.640;139.748;2023-04-24T02:35:04;102216.90;;;20.30;12.11
64115;BME280;62188;35.640;139.748;2023-04-24T02:37:30;102210.37;;;20.03;12.71
64115;BME280;62188;35.640;139.748;2023-04-24T02:39:55;102202.65;;;19.90;13.08
64115;BME280;62188;35.640;139.748;2023-04-24T02:42:20;102200.96;;;20.15;13.38
64115;BME280;62188;35.640;139.748;2023-04-24T02:44:46;102205.83;;;19.98;13.36
64115;BME280;62188;35.640;139.748;2023-04-24T02:47:11;102211.75;;;20.20;13.14
64115;BME280;62188;35.640;139.748;2023-04-24T02:49:37;102212.49;;;20.15;13.16
64115;BME280;62188;35.640;139.748;2023-04-24T02:52:03;102200.99;;;19.70;14.12
64115;BME280;62188;35.640;139.748;2023-04-24T02:54:28;102195.11;;;19.78;14.32
64115;BME280;62188;35.640;139.748;2023-04-24T02:56:54;102184.35;;;20.02;14.54
64115;BME280;62188;35.640;139.748;2023-04-24T02:59:19;102180.68;;;19.31;14.53
64115;BME280;62188;35.640;139.748;2023-04-24T03:01:45;102174.44;;;19.27;14.98
64115;BME280;62188;35.640;139.748;2023-04-24T03:04:10;102175.22;;;19.49;15.49
64115;BME280;62188;35.640;139.748;2023-04-24T03:06:36;102175.34;;;19.15;15.59
64115;BME280;62188;35.640;139.748;2023-04-24T03:09:02;102170.19;;;19.16;15.79
64115;BME280;62188;35.640;139.748;2023-04-24T03:11:27;102163.47;;;18.96;15.87
64115;BME280;62188;35.640;139.748;2023-04-24T03:13:53;102160.05;;;19.26;16.01
64115;BME280;62188;35.640;139.748;2023-04-24T03:16:18;102155.47;;;19.13;16.47
64115;BME280;62188;35.640;139.748;2023-04-24T03:18:44;102153.74;;;18.99;16.54
64115;BME280;62188;35.640;139.748;2023-04-24T03:21:10;102147.87;;;18.93;16.99
64115;BME280;62188;35.640;139.748;2023-04-24T03:23:35;102154.51;;;19.01;17.28
64115;BME280;62188;35.640;139.748;2023-04-24T03:26:00;102160.31;;;18.83;17.29
64115;BME280;62188;35.640;139.748;2023-04-24T03:28:26;102154.46;;;18.74;17.65
64115;BME280;62188;35.640;139.748;2023-04-24T03:30:52;102156.36;;;18.97;17.87
64115;BME280;62188;35.640;139.748;2023-04-24T03:33:17;102157.71;;;18.68;18.03
64115;BME280;62188;35.640;139.748;2023-04-24T03:35:43;102153.80;;;18.73;18.24
64115;BME280;62188;35.640;139.748;2023-04-24T03:38:07;102150.02;;;18.82;18.21
64115;BME280;62188;35.640;139.748;2023-04-24T03:40:33;102148.80;;;18.92;18.12
64115;BME280;62188;35.640;139.748;2023-04-24T03:42:59;102150.51;;;18.70;18.24
64115;BME280;62188;35.640;139.748;2023-04-24T03:45:24;102149.74;;;18.57;18.27
64115;BME280;62188;35.640;139.748;2023-04-24T03:47:49;102149.31;;;18.57;18.09
64115;BME280;62188;35.640;139.748;2023-04-24T03:50:15;102145.96;;;18.62;18.21
64115;BME280;62188;35.640;139.748;2023-04-24T03:52:43;102141.42;;;18.35;17.93
64115;BME280;62188;35.640;139.748;2023-04-24T03:55:35;102132.84;;;18.29;17.09
64115;BME280;62188;35.640;139.748;2023-04-24T03:57:32;102130.37;;;18.81;17.34
64115;BME280;62188;35.640;139.748;2023-04-24T04:02:33;102135.39;;;18.50;18.19
64115;BME280;62188;35.640;139.748;2023-04-24T04:04:53;102132.37;;;18.34;18.32
64115;BME280;62188;35.640;139.748;2023-04-24T04:07:30;102137.83;;;18.32;18.20
64115;BME280;62188;35.640;139.748;2023-04-24T04:09:49;102134.07;;;17.95;18.19
64115;BME280;62188;35.640;139.748;2023-04-24T04:17:07;102125.75;;;18.24;18.45
64115;BME280;62188;35.640;139.748;2023-04-24T04:19:31;102114.45;;;18.55;18.37
64115;BME280;62188;35.640;139.748;2023-04-24T04:22:02;102100.08;;;18.58;18.29
64115;BME280;62188;35.640;139.748;2023-04-24T04:26:56;102091.09;;;18.28;17.55
64115;BME280;62188;35.640;139.748;2023-04-24T04:29:19;102096.23;;;18.28;17.41
64115;BME280;62188;35.640;139.748;2023-04-24T04:31:48;102098.83;;;18.35;17.38
64115;BME280;62188;35.640;139.748;2023-04-24T04:34:04;102096.90;;;18.41;16.96
64115;BME280;62188;35.640;139.748;2023-04-24T04:38:59;102089.04;;;18.45;17.19
64115;BME280;62188;35.640;139.748;2023-04-24T04:41:15;102086.22;;;18.30;17.14
64115;BME280;62188;35.640;139.748;2023-04-24T04:43:46;102081.01;;;18.38;17.10
64115;BME280;62188;35.640;139.748;2023-04-24T04:46:11;102078.82;;;18.34;16.98
64115;BME280;62188;35.640;139.748;2023-04-24T04:48:41;102081.03;;;18.48;17.07
64115;BME280;62188;35.640;139.748;2023-04-24T04:51:03;102083.43;;;18.36;16.94
64115;BME280;62188;35.640;139.748;2023-04-24T04:53:32;102085.41;;;18.37;16.88
64115;BME280;62188;35.640;139.748;2023-04-24T04:58:10;102079.27;;;18.55;16.29
64115;BME280;62188;35.640;139.748;2023-04-24T05:00:34;102085.77;;;18.57;16.39
64115;BME280;62188;35.640;139.748;2023-04-24T05:02:59;102085.70;;;18.61;16.46
64115;BME280;62188;35.640;139.748;2023-04-24T05:05:24;102079.33;;;18.68;16.61
64115;BME280;62188;35.640;139.748;2023-04-24T05:07:50;102075.71;;;18.85;16.70
64115;BME280;62188;35.640;139.748;2023-04-24T05:10:16;102067.94;;;18.73;17.01
64115;BME280;62188;35.640;139.748;2023-04-24T05:12:41;102062.89;;;18.65;16.75
64115;BME280;62188;35.640;139.748;2023-04-24T05:15:07;102056.09;;;18.53;16.75
64115;BME280;62188;35.640;139.748;2023-04-24T05:17:31;102057.16;;;18.74;16.90
64115;BME280;62188;35.640;139.748;2023-04-24T05:19:57;102061.91;;;18.65;16.70
64115;BME280;62188;35.640;139.748;2023-04-24T05:22:22;102059.51;;;18.55;16.73
64115;BME280;62188;35.640;139.748;2023-04-24T05:24:47;102057.99;;;18.47;17.01
64115;BME280;62188;35.640;139.748;2023-04-24T05:27:13;102064.45;;;18.51;17.19
64115;BME280;62188;35.640;139.748;2023-04-24T05:29:38;102056.37;;;18.54;16.49
64115;BME280;62188;35.640;139.748;2023-04-24T05:32:04;102045.02;;;18.40;16.83
64115;BME280;62188;35.640;139.748;2023-04-24T05:34:29;102046.60;;;18.39;16.98
64115;BME280;62188;35.640;139.748;2023-04-24T05:36:55;102042.18;;;18.41;17.00
64115;BME280;62188;35.640;139.748;2023-04-24T05:39:20;102043.54;;;18.40;17.31
64115;BME280;62188;35.640;139.748;2023-04-24T05:41:46;102041.77;;;18.53;16.61
64115;BME280;62188;35.640;139.748;2023-04-24T05:44:11;102036.36;;;18.55;16.61
64115;BME280;62188;35.640;139.748;2023-04-24T05:46:36;102034.67;;;18.63;16.29
64115;BME280;62188;35.640;139.748;2023-04-24T05:49:02;102026.60;;;18.61;16.14
64115;BME280;62188;35.640;139.748;2023-04-24T05:51:27;102022.75;;;18.48;15.92
64115;BME280;62188;35.640;139.748;2023-04-24T05:53:53;102026.23;;;18.49;15.76
64115;BME280;62188;35.640;139.748;2023-04-24T05:56:19;102023.50;;;18.59;15.56
64115;BME280;62188;35.640;139.748;2023-04-24T05:58:44;102030.30;;;18.71;15.66
64115;BME280;62188;35.640;139.748;2023-04-24T06:01:10;102029.38;;;18.72;15.63
64115;BME280;62188;35.640;139.748;2023-04-24T06:03:36;102025.02;;;18.81;15.41
64115;BME280;62188;35.640;139.748;2023-04-24T06:06:01;102018.19;;;18.90;15.39
64115;BME280;62188;35.640;139.748;2023-04-24T06:08:27;102019.02;;;18.99;15.30
64115;BME280;62188;35.640;139.748;2023-04-24T06:10:52;102010.61;;;19.12;15.47
64115;BME280;62188;35.640;139.748;2023-04-24T06:13:17;102009.35;;;19.17;15.42
64115;BME280;62188;35.640;139.748;2023-04-24T06:15:42;102017.85;;;19.07;16.10
64115;BME280;62188;35.640;139.748;2023-04-24T06:18:08;102015.94;;;18.87;15.60
64115;BME280;62188;35.640;139.748;2023-04-24T06:20:33;102010.98;;;19.10;15.11
64115;BME280;62188;35.640;139.748;2023-04-24T06:22:59;102012.74;;;18.97;15.21
64115;BME280;62188;35.640;139.748;2023-04-24T06:25:26;102012.33;;;19.43;14.80
64115;BME280;62188;35.640;139.748;2023-04-24T06:27:50;102008.40;;;19.21;14.83
64115;BME280;62188;35.640;139.748;2023-04-24T06:30:16;102006.61;;;19.26;14.81
64115;BME280;62188;35.640;139.748;2023-04-24T06:32:41;102000.18;;;19.54;15.13
64115;BME280;62188;35.640;139.748;2023-04-24T06:35:07;102005.02;;;19.23;15.08
64115;BME280;62188;35.640;139.748;2023-04-24T06:37:32;102008.22;;;19.74;15.03
64115;BME280;62188;35.640;139.748;2023-04-24T06:39:57;102003.42;;;19.21;14.86
64115;BME280;62188;35.640;139.748;2023-04-24T06:42:23;101999.60;;;19.41;14.79
64115;BME280;62188;35.640;139.748;2023-04-24T06:44:49;101999.70;;;19.17;15.40
64115;BME280;62188;35.640;139.748;2023-04-24T06:47:14;102001.78;;;19.44;15.19
64115;BME280;62188;35.640;139.748;2023-04-24T06:49:40;102005.14;;;19.47;14.55
64115;BME280;62188;35.640;139.748;2023-04-24T06:52:05;102012.11;;;19.43;14.27
64115;BME280;62188;35.640;139.748;2023-04-24T06:54:32;102013.58;;;19.17;14.13
64115;BME280;62188;35.640;139.748;2023-04-24T06:56:57;102009.98;;;19.20;14.30
64115;BME280;62188;35.640;139.748;2023-04-24T06:59:23;102001.56;;;19.34;14.32
64115;BME280;62188;35.640;139.748;2023-04-24T07:01:48;102002.08;;;19.43;14.81
64115;BME280;62188;35.640;139.748;2023-04-24T07:04:14;102003.65;;;19.55;14.72
64115;BME280;62188;35.640;139.748;2023-04-24T07:06:39;102003.03;;;19.51;14.21
64115;BME280;62188;35.640;139.748;2023-04-24T07:09:05;102006.63;;;19.55;14.65
64115;BME280;62188;35.640;139.748;2023-04-24T07:11:30;102012.43;;;19.71;14.44
64115;BME280;62188;35.640;139.748;2023-04-24T07:13:57;102012.84;;;19.65;13.81
64115;BME280;62188;35.640;139.748;2023-04-24T07:16:21;102014.22;;;19.67;13.76
64115;BME280;62188;35.640;139.748;2023-04-24T07:18:48;102018.37;;;19.38;13.67
64115;BME280;62188;35.640;139.748;2023-04-24T07:21:13;102024.02;;;19.31;13.55
64115;BME280;62188;35.640;139.748;2023-04-24T07:23:38;102025.47;;;19.55;13.51
64115;BME280;62188;35.640;139.748;2023-04-24T07:26:04;102024.81;;;18.99;13.46
64115;BME280;62188;35.640;139.748;2023-04-24T07:28:29;102023.18;;;19.19;13.31
64115;BME280;62188;35.640;139.748;2023-04-24T07:30:55;102020.65;;;19.38;13.55
64115;BME280;62188;35.640;139.748;2023-04-24T07:33:20;102023.30;;;18.89;13.67
64115;BME280;62188;35.640;139.748;2023-04-24T07:35:46;102019.86;;;18.70;13.92
64115;BME280;62188;35.640;139.748;2023-04-24T07:38:12;102019.83;;;18.91;14.79
64115;BME280;62188;35.640;139.748;2023-04-24T07:40:38;102025.22;;;19.20;15.37
64115;BME280;62188;35.640;139.748;2023-04-24T07:43:03;102025.70;;;18.99;15.57
64115;BME280;62188;35.640;139.748;2023-04-24T07:45:28;102025.37;;;18.96;16.41
64115;BME280;62188;35.640;139.748;2023-04-24T07:47:54;102027.83;;;18.79;18.45
64115;BME280;62188;35.640;139.748;2023-04-24T07:50:20;102030.37;;;18.89;19.65
64115;BME280;62188;35.640;139.748;2023-04-24T07:52:45;102031.23;;;18.61;21.78
64115;BME280;62188;35.640;139.748;2023-04-24T07:55:11;102038.65;;;18.43;22.96
64115;BME280;62188;35.640;139.748;2023-04-24T07:57:36;102039.43;;;18.31;23.66
64115;BME280;62188;35.640;139.748;2023-04-24T08:00:02;102045.51;;;18.24;24.19
64115;BME280;62188;35.640;139.748;2023-04-24T08:02:27;102053.30;;;18.18;24.73
64115;BME280;62188;35.640;139.748;2023-04-24T08:04:52;102053.59;;;18.03;25.35
64115;BME280;62188;35.640;139.748;2023-04-24T08:07:18;102053.02;;;17.82;25.63
64115;BME280;62188;35.640;139.748;2023-04-24T08:09:44;102061.75;;;17.79;25.59
64115;BME280;62188;35.640;139.748;2023-04-24T08:12:09;102064.56;;;18.06;26.17
64115;BME280;62188;35.640;139.748;2023-04-24T08:14:34;102065.57;;;17.97;26.19
64115;BME280;62188;35.640;139.748;2023-04-24T08:17:00;102064.65;;;17.61;26.46
64115;BME280;62188;35.640;139.748;2023-04-24T08:19:25;102069.16;;;17.73;26.36
64115;BME280;62188;35.640;139.748;2023-04-24T08:21:51;102069.26;;;17.89;26.57
64115;BME280;62188;35.640;139.748;2023-04-24T08:24:16;102071.89;;;17.51;26.80
64115;BME280;62188;35.640;139.748;2023-04-24T08:26:42;102070.71;;;17.67;26.60
64115;BME280;62188;35.640;139.748;2023-04-24T08:29:08;102076.47;;;17.66;26.57
64115;BME280;62188;35.640;139.748;2023-04-24T08:31:33;102081.07;;;17.66;26.48
64115;BME280;62188;35.640;139.748;2023-04-24T08:33:58;102084.31;;;17.72;26.58
64115;BME280;62188;35.640;139.748;2023-04-24T08:36:24;102085.82;;;17.67;26.68
64115;BME280;62188;35.640;139.748;2023-04-24T08:38:49;102086.87;;;17.26;27.14
64115;BME280;62188;35.640;139.748;2023-04-24T08:41:15;102091.37;;;17.27;27.12
64115;BME280;62188;35.640;139.748;2023-04-24T08:43:41;102101.07;;;17.64;27.06
64115;BME280;62188;35.640;139.748;2023-04-24T08:46:06;102097.36;;;17.28;27.43
64115;BME280;62188;35.640;139.748;2023-04-24T08:48:32;102100.66;;;17.11;27.40
64115;BME280;62188;35.640;139.748;2023-04-24T08:50:58;102107.64;;;17.23;27.29
64115;BME280;62188;35.640;139.748;2023-04-24T08:53:25;102108.43;;;17.36;27.06
64115;BME280;62188;35.640;139.748;2023-04-24T08:55:49;102112.91;;;17.39;27.15
64115;BME280;62188;35.640;139.748;2023-04-24T08:58:15;102108.77;;;17.14;27.42
64115;BME280;62188;35.640;139.748;2023-04-24T09:00:40;102109.69;;;17.14;27.34
64115;BME280;62188;35.640;139.748;2023-04-24T09:03:06;102108.61;;;17.16;27.66
64115;BME280;62188;35.640;139.748;2023-04-24T09:05:31;102114.03;;;17.13;27.51
64115;BME280;62188;35.640;139.748;2023-04-24T09:07:57;102117.44;;;16.87;27.74
64115;BME280;62188;35.640;139.748;2023-04-24T09:10:24;102121.63;;;16.98;27.92
64115;BME280;62188;35.640;139.748;2023-04-24T09:12:48;102124.12;;;17.11;27.78
64115;BME280;62188;35.640;139.748;2023-04-24T09:15:14;102114.80;;;16.78;27.85
64115;BME280;62188;35.640;139.748;2023-04-24T09:17:39;102111.71;;;16.74;27.93
64115;BME280;62188;35.640;139.748;2023-04-24T09:20:05;102119.01;;;17.02;28.06
64115;BME280;62188;35.640;139.748;2023-04-24T09:22:31;102124.42;;;16.40;28.22
64115;BME280;62188;35.640;139.748;2023-04-24T09:25:01;102120.17;;;16.60;28.18
64115;BME280;62188;35.640;139.748;2023-04-24T09:27:24;102128.55;;;16.72;28.37
64115;BME280;62188;35.640;139.748;2023-04-24T09:29:54;102132.06;;;16.48;28.55
64115;BME280;62188;35.640;139.748;2023-04-24T09:32:20;102136.98;;;16.45;28.64
64115;BME280;62188;35.640;139.748;2023-04-24T09:34:38;102138.39;;;16.50;28.72
64115;BME280;62188;35.640;139.748;2023-04-24T09:37:03;102144.05;;;16.50;29.28
64115;BME280;62188;35.640;139.748;2023-04-24T09:39:29;102147.58;;;16.36;29.03
64115;BME280;62188;35.640;139.748;2023-04-24T09:41:56;102143.85;;;16.20;29.16
64115;BME280;62188;35.640;139.748;2023-04-24T09:44:22;102146.80;;;16.27;29.68
64115;BME280;62188;35.640;139.748;2023-04-24T09:46:49;102146.02;;;16.37;29.27
64115;BME280;62188;35.640;139.748;2023-04-24T09:49:14;102148.88;;;16.74;29.17
64115;BME280;62188;35.640;139.748;2023-04-24T09:51:38;102150.99;;;16.69;29.32
64115;BME280;62188;35.640;139.748;2023-04-24T09:54:03;102153.80;;;16.44;29.45
64115;BME280;62188;35.640;139.748;2023-04-24T09:56:29;102159.00;;;16.62;29.84
64115;BME280;62188;35.640;139.748;2023-04-24T09:58:54;102164.36;;;16.45;29.95
64115;BME280;62188;35.640;139.748;2023-04-24T10:03:46;102159.86;;;16.56;29.70
64115;BME280;62188;35.640;139.748;2023-04-24T10:06:12;102163.14;;;16.92;29.34
64115;BME280;62188;35.640;139.748;2023-04-24T10:08:37;102166.47;;;16.72;29.36
64115;BME280;62188;35.640;139.748;2023-04-24T10:11:02;102172.98;;;16.60;29.30
64115;BME280;62188;35.640;139.748;2023-04-24T10:13:28;102171.76;;;16.83;29.20
64115;BME280;62188;35.640;139.748;2023-04-24T10:15:53;102166.80;;;16.81;29.25
64115;BME280;62188;35.640;139.748;2023-04-24T10:18:20;102167.87;;;16.75;29.13
64115;BME280;62188;35.640;139.748;2023-04-24T10:20:45;102176.20;;;17.02;29.09
64115;BME280;62188;35.640;139.748;2023-04-24T10:23:10;102179.99;;;17.13;29.13
64115;BME280;62188;35.640;139.748;2023-04-24T10:25:36;102181.52;;;17.17;29.36
64115;BME280;62188;35.640;139.748;2023-04-24T10:28:02;102177.67;;;17.04;29.37
64115;BME280;62188;35.640;139.748;2023-04-24T10:30:28;102188.20;;;17.20;29.20
64115;BME280;62188;35.640;139.748;2023-04-24T10:32:53;102194.49;;;17.27;29.01
64115;BME280;62188;35.640;139.748;2023-04-24T10:35:19;102192.41;;;17.35;28.73
64115;BME280;62188;35.640;139.748;2023-04-24T10:37:46;102203.39;;;17.52;28.60
64115;BME280;62188;35.640;139.748;2023-04-24T10:40:12;102197.92;;;17.10;28.72
64115;BME280;62188;35.640;139.748;2023-04-24T10:42:34;102198.82;;;17.32;28.66
64115;BME280;62188;35.640;139.748;2023-04-24T10:45:01;102208.89;;;17.25;28.70
64115;BME280;62188;35.640;139.748;2023-04-24T10:47:26;102218.31;;;17.24;28.92
64115;BME280;62188;35.640;139.748;2023-04-24T10:49:52;102228.95;;;17.32;28.90
64115;BME280;62188;35.640;139.748;2023-04-24T10:52:17;102236.96;;;17.48;28.84
64115;BME280;62188;35.640;139.748;2023-04-24T10:54:45;102238.70;;;17.54;28.79
64115;BME280;62188;35.640;139.748;2023-04-24T10:59:36;102249.02;;;17.63;28.79
64115;BME280;62188;35.640;139.748;2023-04-24T11:01:59;102252.07;;;17.43;28.81
64115;BME280;62188;35.640;139.748;2023-04-24T11:04:32;102245.48;;;17.77;28.78
64115;BME280;62188;35.640;139.748;2023-04-24T11:06:50;102251.94;;;17.25;29.08
64115;BME280;62188;35.640;139.748;2023-04-24T11:09:16;102255.63;;;17.68;29.25
64115;BME280;62188;35.640;139.748;2023-04-24T11:11:46;102258.44;;;17.53;29.23
64115;BME280;62188;35.640;139.748;2023-04-24T11:14:08;102261.15;;;17.65;29.31
64115;BME280;62188;35.640;139.748;2023-04-24T11:16:33;102257.23;;;17.70;29.51
64115;BME280;62188;35.640;139.748;2023-04-24T11:19:04;102255.07;;;17.71;29.68
64115;BME280;62188;35.640;139.748;2023-04-24T11:21:24;102259.99;;;17.38;30.05
64115;BME280;62188;35.640;139.748;2023-04-24T11:23:49;102263.11;;;17.61;30.09
64115;BME280;62188;35.640;139.748;2023-04-24T11:26:21;102263.85;;;17.51;30.10
64115;BME280;62188;35.640;139.748;2023-04-24T11:28:46;102267.32;;;17.64;29.78
64115;BME280;62188;35.640;139.748;2023-04-24T11:33:32;102274.81;;;17.85;29.45
64115;BME280;62188;35.640;139.748;2023-04-24T11:35:57;102278.36;;;18.19;29.33
64115;BME280;62188;35.640;139.748;2023-04-24T11:38:23;102283.26;;;18.27;29.24
64115;BME280;62188;35.640;139.748;2023-04-24T11:40:48;102285.14;;;17.92;29.16
64115;BME280;62188;35.640;139.748;2023-04-24T11:43:15;102285.59;;;18.06;29.12
64115;BME280;62188;35.640;139.748;2023-04-24T11:45:47;102291.59;;;18.18;29.04
64115;BME280;62188;35.640;139.748;2023-04-24T11:48:05;102293.23;;;18.30;29.01
64115;BME280;62188;35.640;139.748;2023-04-24T11:50:30;102295.42;;;18.41;28.89
64115;BME280;62188;35.640;139.748;2023-04-24T11:52:56;102299.12;;;18.31;28.71
64115;BME280;62188;35.640;139.748;2023-04-24T11:55:27;102302.84;;;18.63;27.99
64115;BME280;62188;35.640;139.748;2023-04-24T11:57:49;102298.02;;;18.67;26.93
64115;BME280;62188;35.640;139.748;2023-04-24T12:00:18;102300.46;;;18.72;26.25
64115;BME280;62188;35.640;139.748;2023-04-24T12:02:38;102302.27;;;18.52;25.49
64115;BME280;62188;35.640;139.748;2023-04-24T12:05:04;102302.22;;;18.52;24.45
64115;BME280;62188;35.640;139.748;2023-04-24T12:07:29;102303.08;;;18.78;24.11
64115;BME280;62188;35.640;139.748;2023-04-24T12:09:58;102304.45;;;18.79;23.89
64115;BME280;62188;35.640;139.748;2023-04-24T12:12:20;102303.01;;;18.86;24.14
64115;BME280;62188;35.640;139.748;2023-04-24T12:14:49;102304.08;;;18.87;22.78
64115;BME280;62188;35.640;139.748;2023-04-24T12:17:12;102301.11;;;18.91;22.75
64115;BME280;62188;35.640;139.748;2023-04-24T12:19:37;102293.73;;;18.45;22.11
64115;BME280;62188;35.640;139.748;2023-04-24T12:22:04;102291.31;;;18.93;21.13
64115;BME280;62188;35.640;139.748;2023-04-24T12:24:28;102295.47;;;18.66;20.65
64115;BME280;62188;35.640;139.748;2023-04-24T12:26:54;102296.68;;;18.44;20.59
64115;BME280;62188;35.640;139.748;2023-04-24T12:29:21;102298.31;;;18.65;20.37
64115;BME280;62188;35.640;139.748;2023-04-24T12:31:45;102298.38;;;18.91;20.46
64115;BME280;62188;35.640;139.748;2023-04-24T12:34:18;102291.83;;;18.65;20.22
64115;BME280;62188;35.640;139.748;2023-04-24T12:36:37;102284.93;;;18.90;20.28
64115;BME280;62188;35.640;139.748;2023-04-24T12:39:02;102285.44;;;18.87;19.94
64115;BME280;62188;35.640;139.748;2023-04-24T12:41:27;102281.64;;;18.66;20.13
64115;BME280;62188;35.640;139.748;2023-04-24T12:43:54;102284.50;;;18.85;19.93